Terminal Aerodrome Forecast
Issued by NWS

Home | Current Version | Previous Version | Text Only | Print | Product List | Glossary On
Versions: 1 2 3 4 5 6 7 8 9 10 11 12 13 14 15 16 17 18 19 20 21 22 23 24 25 26 27 28 29 30 31 32 33 34 35 36 37 38 39 40 41 42 43 44
000
FTUS43 KDTX 032207 AAB
TAFPTK
TAF AMD
KPTK 032207Z 0322/0418 22008KT 1SM -FZDZ BR OVC004
     FM032330 22013KT 2SM -DZ BR OVC006
     FM040100 24013KT 6SM BR OVC015
     FM040500 28010KT P6SM BKN025 BKN100
     FM040900 28008KT P6SM SCT025 BKN100
     FM041400 27010KT P6SM BKN025=

USA.gov is the U.S. government's official web portal to all federal, state and local government web resources and services.